EDT,Max TemperatureF,Mean TemperatureF,Min TemperatureF,Max Dew PointF,MeanDew PointF,Min DewpointF,Max Humidity, Mean Humidity, Min Humidity, Max Sea Level PressureIn, Mean Sea Level PressureIn, Min Sea Level PressureIn, Max VisibilityMiles, Mean VisibilityMiles, Min VisibilityMiles, Max Wind SpeedMPH, Mean Wind SpeedMPH, Max Gust SpeedMPH,PrecipitationIn, CloudCover, Events, WindDirDegrees
2014-3-1,32,26,19,23,17,10,93,70,51,30.24,30.11,30.03,10,8,1,13,6,,0.02,7,Snow,274
2014-3-2,19,12,6,16,5,1,86,72,57,30.32,30.28,30.22,10,8,1,16,8,21,0.01,7,Snow,54
2014-3-3,10,4,-2,1,-5,-11,85,63,44,30.46,30.40,30.31,10,10,7,14,7,20,0.00,0,,60
2014-3-4,19,10,1,10,3,-2,85,67,49,30.39,30.29,30.19,10,10,10,8,2,,0.00,6,,182
2014-3-5,24,18,12,14,8,3,85,64,49,30.50,30.38,30.23,10,10,4,13,4,18,0.00,5,Snow,52
2014-3-6,23,16,8,10,8,3,85,70,54,30.49,30.35,30.15,10,10,10,13,8,9,0.00,0,,55
2014-3-7,35,22,10,27,19,7,93,82,65,30.13,30.01,29.90,10,9,5,8,1,,0.00,0,,177
2014-3-8,35,29,23,34,25,18,93,77,60,30.16,30.04,29.90,10,7,1,15,4,17,0.15,7,Rain-Snow,356
2014-3-9,37,28,19,27,19,10,86,68,41,30.22,30.07,29.82,10,10,10,17,6,25,0.00,0,,242
2014-3-10,46,42,37,37,32,27,81,70,61,29.83,29.67,29.56,10,10,7,18,12,26,0.00,3,,233
2014-3-11,51,42,33,39,36,32,93,82,58,29.73,29.66,29.62,10,6,1,13,3,17,0.02,3,Rain,265
2014-3-12,39,26,10,36,19,1,93,77,49,29.99,29.69,29.51,10,6,0,34,17,43,0.11,6,Snow,3
2014-3-13,24,14,3,16,3,-6,79,61,30,30.15,30.06,29.98,10,10,10,18,8,18,0.00,2,Snow,249
2014-3-14,53,38,23,34,27,16,86,67,41,29.97,29.73,29.56,10,10,10,24,12,39,0.00,0,,206
2014-3-15,41,36,30,30,25,16,81,62,45,30.24,29.96,29.70,10,10,10,17,10,25,0.00,5,,292
2014-3-16,28,21,14,18,8,3,73,61,46,30.40,30.30,30.18,10,10,7,20,14,25,0.00,4,Snow,33
2014-3-17,30,21,12,18,10,1,79,64,47,30.18,30.03,29.92,10,10,10,15,11,18,0.00,0,,58
2014-3-18,44,34,23,30,25,18,86,72,49,30.02,29.97,29.85,10,10,10,14,5,20,0.00,1,,88
2014-3-19,48,40,33,45,35,28,93,85,66,29.86,29.72,29.59,10,8,2,23,9,36,0.06,7,Rain,187
2014-3-20,39,34,30,34,25,19,87,64,45,30.04,29.92,29.81,10,10,4,17,12,26,0.00,7,,277
2014-3-21,39,31,23,30,24,19,86,72,52,30.08,29.98,29.68,10,10,10,13,4,16,0.00,1,,122
2014-3-22,42,38,33,36,29,23,93,72,52,30.18,29.95,29.63,10,9,2,21,9,30,0.02,8,Rain,300
2014-3-23,32,26,19,21,6,0,64,46,37,30.34,30.30,30.19,10,10,10,16,11,25,0.00,3,,327
2014-3-24,30,24,17,14,9,3,73,52,37,30.32,30.23,30.09,10,10,10,14,6,20,0.00,3,,276
2014-3-25,35,27,19,25,15,7,86,64,30,30.13,29.98,29.92,10,8,1,22,8,29,0.00,5,Snow,264
2014-3-26,30,21,12,21,9,3,79,58,32,30.33,30.25,30.14,10,10,10,15,8,20,0.00,2,,256
2014-3-27,39,34,28,36,27,19,87,74,64,30.19,29.97,29.70,10,10,5,16,12,20,0.01,7,Rain-Snow,164
2014-3-28,51,43,35,46,37,32,93,78,66,30.17,29.82,29.59,10,10,7,26,13,36,0.00,8,,251
2014-3-29,39,36,33,32,29,27,87,77,65,30.18,30.11,30.03,10,10,4,21,9,28,0.00,8,Snow,23
2014-3-30,48,37,26,27,20,10,80,56,22,30.17,30.13,30.09,10,10,10,15,9,18,0.00,0,,335
2014-3-31,55,42,28,30,23,16,86,55,26,30.20,30.13,30.00,10,10,10,12,3,,0.00,0,,128